Terminal Aerodrome Forecast
Issued by NWS Cleveland, OH

Home | Current Version | Previous Version | Text Only | Print | Product List | Glossary On
Versions: 1 2 3 4 5 6 7 8 9 10 11 12 13 14 15 16 17 18 19 20 21 22
000
FTUS41 KCLE 010802 AAA
TAFYNG
TAF AMD
KYNG 010802Z 0108/0206 12007KT P6SM VCSH BKN009 OVC070
      TEMPO 0109/0113 5SM -SHRA BKN012 OVC050
     FM011300 11007KT 6SM BR VCSH BKN012
     FM011500 14007KT P6SM VCSH BKN025
     FM011800 17007KT P6SM VCSH BKN040=

USA.gov is the U.S. government's official web portal to all federal, state and local government web resources and services.